Bloomington, Wisconsin
Current Conditions -  °F | °C
As of 1:55 PM on Thursday 23 Oct 2014 (Local Time) from KPDC Reporting Station
Overcast Overcast  
Wind Chill:   Ceiling: 800
Heat Index:   Visibility: 10mi
Dew Point:   Wind: 5mph
Humidity: 90%   Direction: 170°S
Pressure: 30.05"   Gusts: NA
Location:  42.89°N, 90.92°W
Report Text: KPDC 231855Z AUTO 17004KT 10SM OVC008 09/08 A3005 RMK AO2 T00910075
Loading
Personal Weather Stations






























Interactive Weather Map
Tropical Storm Tracking
New forecast layout! Learn more

10-Day Weather Forecast

Advertisements
Track Severe Weather on mobile